createdAt,value
2019-03-17T00:01:42.916Z,99.90
2019-03-17T00:04:30.893Z,99.90
2019-03-17T00:07:00.610Z,99.90
2019-03-17T00:09:39.252Z,99.90
2019-03-17T00:12:17.910Z,99.90
2019-03-17T00:15:05.295Z,99.90
2019-03-17T00:17:35.995Z,99.90
2019-03-17T00:20:19.048Z,99.90
2019-03-17T00:22:57.421Z,99.90
2019-03-17T00:25:35.489Z,99.90
2019-03-17T00:28:13.685Z,99.90
2019-03-17T00:30:54.076Z,99.90
2019-03-17T00:33:36.381Z,99.90
2019-03-17T00:36:13.835Z,99.90
2019-03-17T00:38:54.296Z,99.90
2019-03-17T00:41:33.320Z,99.90
2019-03-17T00:44:14.003Z,99.90
2019-03-17T00:46:51.902Z,99.90
2019-03-17T00:49:30.021Z,99.90
2019-03-17T00:52:08.221Z,99.90
2019-03-17T00:54:47.743Z,99.90
2019-03-17T00:57:26.212Z,99.90
2019-03-17T01:00:03.763Z,99.90
2019-03-17T01:02:45.673Z,99.90
2019-03-17T01:05:24.522Z,99.90
2019-03-17T01:08:02.056Z,99.90
2019-03-17T01:10:41.121Z,99.90
2019-03-17T01:13:19.958Z,99.90
2019-03-17T01:15:59.448Z,99.90
2019-03-17T01:18:37.619Z,99.90
2019-03-17T01:21:16.545Z,99.80
2019-03-17T01:23:54.957Z,99.60
2019-03-17T01:26:34.288Z,99.50
2019-03-17T01:29:11.819Z,98.80
2019-03-17T01:31:49.737Z,98.50
2019-03-17T01:34:29.812Z,98.60
2019-03-17T01:37:08.877Z,97.60
2019-03-17T01:39:46.792Z,97.60
2019-03-17T01:42:26.124Z,97.50
2019-03-17T01:45:04.414Z,97.40
2019-03-17T01:47:44.041Z,97.50
2019-03-17T01:50:27.094Z,97.20
2019-03-17T01:53:08.757Z,96.80
2019-03-17T01:55:46.827Z,96.10
2019-03-17T01:58:25.322Z,96.30
2019-03-17T02:01:03.342Z,95.10
2019-03-17T02:03:41.366Z,94.40
2019-03-17T02:06:21.429Z,95.00
2019-03-17T02:09:00.248Z,95.00
2019-03-17T02:11:42.963Z,95.10
2019-03-17T02:14:22.221Z,95.10
2019-03-17T02:17:00.139Z,95.50
2019-03-17T02:19:40.281Z,94.90
2019-03-17T02:22:18.845Z,95.50
2019-03-17T02:24:57.660Z,95.50
2019-03-17T02:27:36.529Z,95.30
2019-03-17T02:30:15.898Z,94.20
2019-03-17T02:32:54.780Z,94.50
2019-03-17T02:35:39.426Z,93.90
2019-03-17T02:38:17.607Z,94.10
2019-03-17T02:40:56.884Z,93.30
2019-03-17T02:43:36.790Z,94.10
2019-03-17T02:46:15.261Z,94.50
2019-03-17T02:48:54.906Z,94.00
2019-03-17T02:51:34.283Z,93.30
2019-03-17T02:54:12.557Z,92.80
2019-03-17T02:56:50.878Z,92.20
2019-03-17T02:59:28.731Z,92.50
2019-03-17T03:02:07.872Z,92.10
2019-03-17T03:04:45.780Z,92.20
2019-03-17T03:07:23.849Z,92.50
2019-03-17T03:10:02.193Z,92.60
2019-03-17T03:12:41.135Z,92.20
2019-03-17T03:15:21.446Z,92.80
2019-03-17T03:17:59.367Z,92.30
2019-03-17T03:20:38.334Z,92.30
2019-03-17T03:23:17.070Z,91.90
2019-03-17T03:25:56.562Z,92.10
2019-03-17T03:28:37.018Z,92.10
2019-03-17T03:31:15.772Z,91.00
2019-03-17T03:33:54.975Z,91.10
2019-03-17T03:36:33.086Z,90.70
2019-03-17T03:39:13.050Z,90.30
2019-03-17T03:41:55.171Z,90.40
2019-03-17T03:44:38.026Z,90.70
2019-03-17T03:47:18.813Z,90.00
2019-03-17T03:49:59.717Z,87.90
2019-03-17T03:52:41.710Z,88.00
2019-03-17T03:55:25.431Z,85.40
2019-03-17T03:58:06.751Z,87.20
2019-03-17T04:00:50.049Z,86.80
2019-03-17T04:03:29.430Z,85.60
2019-03-17T04:06:24.966Z,84.10
2019-03-17T04:08:52.473Z,85.30
2019-03-17T04:11:37.538Z,85.10
2019-03-17T04:14:17.835Z,84.70
2019-03-17T04:16:58.794Z,83.00
2019-03-17T04:19:38.553Z,82.90
2019-03-17T04:22:23.097Z,82.70
2019-03-17T04:25:03.687Z,83.70
2019-03-17T04:27:56.177Z,83.50
2019-03-17T04:30:36.704Z,82.20
2019-03-17T04:33:20.821Z,81.90
2019-03-17T04:35:59.584Z,80.10
2019-03-17T04:38:43.860Z,81.00
2019-03-17T04:41:24.300Z,80.80
2019-03-17T04:44:06.695Z,81.60
2019-03-17T04:46:50.481Z,79.80
2019-03-17T04:49:29.518Z,80.50
2019-03-17T04:52:06.855Z,79.60
2019-03-17T04:54:45.403Z,79.20
2019-03-17T04:57:28.123Z,77.30
2019-03-17T05:00:10.019Z,77.30
2019-03-17T05:03:08.914Z,76.80
2019-03-17T05:05:56.977Z,75.20
2019-03-17T05:08:42.867Z,76.40
2019-03-17T05:11:26.558Z,74.60
2019-03-17T05:14:08.120Z,74.10
2019-03-17T05:16:53.979Z,75.20
2019-03-17T05:19:36.241Z,75.30
2019-03-17T05:22:22.823Z,76.80
2019-03-17T05:25:09.230Z,77.00
2019-03-17T05:27:55.819Z,78.70
2019-03-17T05:30:34.921Z,74.40
2019-03-17T05:33:17.015Z,75.20
2019-03-17T05:36:08.392Z,76.90
2019-03-17T05:38:48.322Z,76.60
2019-03-17T05:41:26.742Z,76.90
2019-03-17T05:44:06.333Z,80.00
2019-03-17T05:46:44.539Z,77.90
2019-03-17T05:49:24.828Z,79.40
2019-03-17T05:52:03.374Z,81.10
2019-03-17T05:54:44.181Z,83.10
2019-03-17T05:57:22.464Z,79.70
2019-03-17T06:00:00.925Z,77.80
2019-03-17T06:02:39.302Z,76.80
2019-03-17T06:05:18.685Z,79.20
2019-03-17T06:08:01.557Z,78.90
2019-03-17T06:10:39.723Z,80.40
2019-03-17T06:13:18.691Z,77.90
2019-03-17T06:15:57.060Z,77.70
2019-03-17T06:18:35.089Z,78.80
2019-03-17T06:21:13.176Z,78.80
2019-03-17T06:23:51.304Z,78.40
2019-03-17T06:26:30.572Z,78.40
2019-03-17T06:29:10.776Z,77.80
2019-03-17T06:31:49.663Z,76.80
2019-03-17T06:34:28.964Z,75.50
2019-03-17T06:37:07.843Z,73.80
2019-03-17T06:39:46.113Z,74.50
2019-03-17T06:42:24.321Z,77.40
2019-03-17T06:45:01.828Z,76.40
2019-03-17T06:47:42.521Z,77.90
2019-03-17T06:50:21.465Z,78.70
2019-03-17T06:53:01.508Z,78.50
2019-03-17T06:55:39.932Z,79.40
2019-03-17T06:58:18.718Z,81.90
2019-03-17T07:00:57.516Z,81.00
2019-03-17T07:03:36.521Z,81.80
2019-03-17T07:06:15.341Z,81.80
2019-03-17T07:08:54.661Z,81.10
2019-03-17T07:11:33.317Z,81.50
2019-03-17T07:14:11.839Z,83.10
2019-03-17T07:16:50.073Z,81.40
2019-03-17T07:19:28.452Z,80.80
2019-03-17T07:22:08.927Z,81.30
2019-03-17T07:24:49.405Z,81.80
2019-03-17T07:27:28.786Z,81.10
2019-03-17T07:30:08.320Z,79.40
2019-03-17T07:32:46.330Z,81.00
2019-03-17T07:35:25.362Z,81.60
2019-03-17T07:38:03.204Z,81.20
2019-03-17T07:40:41.412Z,81.90
2019-03-17T07:43:18.762Z,81.80
2019-03-17T07:45:58.162Z,82.20
2019-03-17T07:48:36.427Z,81.90
2019-03-17T07:51:15.332Z,81.60
2019-03-17T07:53:53.260Z,81.10
2019-03-17T07:56:32.138Z,82.00
2019-03-17T07:59:10.843Z,82.20
2019-03-17T08:01:50.610Z,82.60
2019-03-17T08:04:28.813Z,81.20
2019-03-17T08:07:07.318Z,80.90
2019-03-17T08:09:45.226Z,80.30
2019-03-17T08:12:24.013Z,81.00
2019-03-17T08:15:01.566Z,80.40
2019-03-17T08:17:39.793Z,78.00
2019-03-17T08:20:17.912Z,74.80
2019-03-17T08:22:56.877Z,80.40
2019-03-17T08:25:34.792Z,81.40
2019-03-17T08:28:13.295Z,81.20
2019-03-17T08:30:53.698Z,83.80
2019-03-17T08:33:32.103Z,82.70
2019-03-17T08:36:09.958Z,82.20
2019-03-17T08:38:48.495Z,82.90
2019-03-17T08:41:26.687Z,83.40
2019-03-17T08:44:05.381Z,82.40
2019-03-17T08:46:43.247Z,82.30
2019-03-17T08:49:21.356Z,81.50
2019-03-17T08:52:01.783Z,80.40
2019-03-17T08:54:41.673Z,80.70
2019-03-17T08:57:19.813Z,80.20
2019-03-17T08:59:58.668Z,81.60
2019-03-17T09:02:37.947Z,82.40
2019-03-17T09:05:16.651Z,82.00
2019-03-17T09:07:54.454Z,80.10
2019-03-17T09:10:32.445Z,79.50
2019-03-17T09:13:11.720Z,79.60
2019-03-17T09:15:50.118Z,79.20
2019-03-17T09:18:28.155Z,77.80
2019-03-17T09:21:06.523Z,77.00
2019-03-17T09:23:44.357Z,78.00
2019-03-17T09:26:23.037Z,79.70
2019-03-17T09:29:01.570Z,77.80
2019-03-17T09:31:40.414Z,74.60
2019-03-17T09:34:18.561Z,75.30
2019-03-17T09:36:56.927Z,76.80
2019-03-17T09:39:35.852Z,77.30
2019-03-17T09:42:13.982Z,77.90
2019-03-17T09:44:51.588Z,78.90
2019-03-17T09:47:30.348Z,80.40
2019-03-17T09:50:08.075Z,81.50
2019-03-17T09:52:46.838Z,83.10
2019-03-17T09:55:25.175Z,84.60
2019-03-17T09:58:05.340Z,84.80
2019-03-17T10:00:46.316Z,84.00
2019-03-17T10:03:23.927Z,84.20
2019-03-17T10:06:02.558Z,85.20
2019-03-17T10:08:44.360Z,86.40
2019-03-17T10:11:24.427Z,86.10
2019-03-17T10:14:03.541Z,86.00
2019-03-17T10:16:41.174Z,85.80
2019-03-17T10:19:21.107Z,85.80
2019-03-17T10:21:59.263Z,84.70
2019-03-17T10:24:37.485Z,84.70
2019-03-17T10:27:15.022Z,85.30
2019-03-17T10:29:53.314Z,85.60
2019-03-17T10:32:31.190Z,86.70
2019-03-17T10:35:10.266Z,87.10
2019-03-17T10:37:48.493Z,86.40
2019-03-17T10:40:26.543Z,88.00
2019-03-17T10:43:07.251Z,88.70
2019-03-17T10:45:47.760Z,89.30
2019-03-17T10:48:27.008Z,89.10
2019-03-17T10:51:05.243Z,89.30
2019-03-17T10:53:43.500Z,90.30
2019-03-17T10:56:21.683Z,90.30
2019-03-17T10:58:59.129Z,90.00
2019-03-17T11:01:37.139Z,90.00
2019-03-17T11:04:15.057Z,90.30
2019-03-17T11:06:52.853Z,91.00
2019-03-17T11:09:30.959Z,91.50
2019-03-17T11:12:10.690Z,91.50
2019-03-17T11:14:48.653Z,91.50
2019-03-17T11:17:26.813Z,91.70
2019-03-17T11:20:04.976Z,92.50
2019-03-17T11:22:43.900Z,93.20
2019-03-17T11:25:22.508Z,93.60
2019-03-17T11:28:00.735Z,93.40
2019-03-17T11:30:38.664Z,93.50
2019-03-17T11:33:17.629Z,94.10
2019-03-17T11:35:56.425Z,94.80
2019-03-17T11:38:38.050Z,94.90
2019-03-17T11:41:16.436Z,94.60
2019-03-17T11:43:55.116Z,94.80
2019-03-17T11:46:34.098Z,95.30
2019-03-17T11:49:12.844Z,96.10
2019-03-17T11:51:50.707Z,96.00
2019-03-17T11:54:32.859Z,96.00
2019-03-17T11:57:10.244Z,96.10
2019-03-17T11:59:48.136Z,96.50
2019-03-17T12:02:26.938Z,96.80
2019-03-17T12:05:06.640Z,96.80
2019-03-17T12:07:46.521Z,96.80
2019-03-17T12:10:25.389Z,96.80
2019-03-17T12:13:04.134Z,97.00
2019-03-17T12:15:42.837Z,97.20
2019-03-17T12:18:21.679Z,97.80
2019-03-17T12:21:00.456Z,97.30
2019-03-17T12:23:41.229Z,96.80
2019-03-17T12:26:19.858Z,97.20
2019-03-17T12:28:57.501Z,97.90
2019-03-17T12:31:34.913Z,98.10
2019-03-17T12:34:13.242Z,97.80
2019-03-17T12:36:52.127Z,97.60
2019-03-17T12:39:29.807Z,98.10
2019-03-17T12:42:08.371Z,98.80
2019-03-17T12:44:51.297Z,98.60
2019-03-17T12:47:29.999Z,98.20
2019-03-17T12:50:09.267Z,98.00
2019-03-17T12:52:47.911Z,98.00
2019-03-17T12:55:26.306Z,98.50
2019-03-17T12:58:05.261Z,98.60
2019-03-17T13:00:43.157Z,98.40
2019-03-17T13:03:21.500Z,98.30
2019-03-17T13:05:59.798Z,98.30
2019-03-17T13:08:38.699Z,98.10
2019-03-17T13:11:20.932Z,98.00
2019-03-17T13:14:00.875Z,98.00
2019-03-17T13:16:42.740Z,97.50
2019-03-17T13:19:23.064Z,97.70
2019-03-17T13:22:01.799Z,97.80
2019-03-17T13:24:39.423Z,98.00
2019-03-17T13:27:18.016Z,97.90
2019-03-17T13:30:00.406Z,97.30
2019-03-17T13:32:43.060Z,97.60
2019-03-17T13:35:22.466Z,97.70
2019-03-17T13:38:00.457Z,97.80
2019-03-17T13:40:40.191Z,97.60
2019-03-17T13:43:17.834Z,97.80
2019-03-17T13:45:56.866Z,98.20
2019-03-17T13:48:36.435Z,98.70
2019-03-17T13:51:14.551Z,98.20
2019-03-17T13:53:53.117Z,97.90
2019-03-17T13:56:32.396Z,97.90
2019-03-17T13:59:14.048Z,98.40
2019-03-17T14:01:53.157Z,98.10
2019-03-17T14:04:31.497Z,97.90
2019-03-17T14:07:10.391Z,97.60
2019-03-17T14:09:48.912Z,97.70
2019-03-17T14:12:27.874Z,98.00
2019-03-17T14:15:07.390Z,98.10
2019-03-17T14:17:46.177Z,98.00
2019-03-17T14:20:25.184Z,98.20
2019-03-17T14:23:04.005Z,98.40
2019-03-17T14:25:42.428Z,98.80
2019-03-17T14:28:21.724Z,98.80
2019-03-17T14:31:00.144Z,98.50
2019-03-17T14:33:39.708Z,98.30
2019-03-17T14:36:18.855Z,98.50
2019-03-17T14:38:57.556Z,98.80
2019-03-17T14:41:35.428Z,99.10
2019-03-17T14:44:16.060Z,99.00
2019-03-17T14:46:54.830Z,98.60
2019-03-17T14:49:33.635Z,98.50
2019-03-17T14:52:13.939Z,98.80
2019-03-17T14:54:53.657Z,98.90
2019-03-17T14:57:31.679Z,98.80
2019-03-17T15:00:11.699Z,98.40
2019-03-17T15:02:51.252Z,98.60
2019-03-17T15:05:31.444Z,98.80
2019-03-17T15:08:09.781Z,99.00
2019-03-17T15:10:49.090Z,98.80
2019-03-17T15:13:27.668Z,98.60
2019-03-17T15:16:06.044Z,98.90
2019-03-17T15:18:43.886Z,99.00
2019-03-17T15:21:32.952Z,99.00
2019-03-17T15:24:13.724Z,98.60
2019-03-17T15:26:54.521Z,98.70
2019-03-17T15:29:32.655Z,98.50
2019-03-17T15:32:11.342Z,98.60
2019-03-17T15:34:50.549Z,98.60
2019-03-17T15:37:31.448Z,98.50
2019-03-17T15:40:10.051Z,98.40
2019-03-17T15:42:51.129Z,98.30
2019-03-17T15:45:38.803Z,98.40
2019-03-17T15:48:16.354Z,98.40
2019-03-17T15:50:55.918Z,98.60
2019-03-17T15:53:35.471Z,98.40
2019-03-17T15:56:13.883Z,98.80
2019-03-17T15:58:52.121Z,99.20
2019-03-17T16:01:30.576Z,99.50
2019-03-17T16:04:10.622Z,99.40
2019-03-17T16:06:49.436Z,99.00
2019-03-17T16:09:28.737Z,98.80
2019-03-17T16:12:06.991Z,99.00
2019-03-17T16:14:46.177Z,99.30
2019-03-17T16:17:26.348Z,98.80
2019-03-17T16:20:04.500Z,98.80
2019-03-17T16:22:42.666Z,99.20
2019-03-17T16:25:21.075Z,99.80
2019-03-17T16:27:59.771Z,99.50
2019-03-17T16:30:38.984Z,99.20
2019-03-17T16:33:17.763Z,99.20
2019-03-17T16:35:56.826Z,99.60
2019-03-17T16:38:35.825Z,99.80
2019-03-17T16:41:14.987Z,99.50
2019-03-17T16:43:53.430Z,99.30
2019-03-17T16:46:32.091Z,99.50
2019-03-17T16:49:10.842Z,99.60
2019-03-17T16:51:51.622Z,99.30
2019-03-17T16:54:35.745Z,99.40
2019-03-17T16:57:14.610Z,99.20
2019-03-17T16:59:54.486Z,99.30
2019-03-17T17:02:33.364Z,99.30
2019-03-17T17:05:11.723Z,99.30
2019-03-17T17:07:49.748Z,99.30
2019-03-17T17:10:27.402Z,99.60
2019-03-17T17:13:06.063Z,99.30
2019-03-17T17:15:43.725Z,99.40
2019-03-17T17:18:21.843Z,99.50
2019-03-17T17:21:01.663Z,99.80
2019-03-17T17:23:40.222Z,99.50
2019-03-17T17:26:18.414Z,99.60
2019-03-17T17:28:56.764Z,99.90
2019-03-17T17:31:35.929Z,99.90
2019-03-17T17:34:14.413Z,99.90
2019-03-17T17:36:52.199Z,99.70
2019-03-17T17:39:31.549Z,99.60
2019-03-17T17:42:10.335Z,99.90
2019-03-17T17:44:49.444Z,99.90
2019-03-17T17:47:31.079Z,99.90
2019-03-17T17:50:10.368Z,99.90
2019-03-17T17:52:48.754Z,99.90
2019-03-17T17:55:30.546Z,99.90
2019-03-17T17:58:08.452Z,99.90
2019-03-17T18:00:47.270Z,99.90
2019-03-17T18:03:25.349Z,99.90
2019-03-17T18:06:04.559Z,99.90
2019-03-17T18:08:42.853Z,99.90
2019-03-17T18:11:21.941Z,99.90
2019-03-17T18:14:00.785Z,99.90
2019-03-17T18:16:41.543Z,99.90
2019-03-17T18:19:19.006Z,99.90
2019-03-17T18:21:57.769Z,99.90
2019-03-17T18:24:36.374Z,99.90
2019-03-17T18:27:18.139Z,99.90
2019-03-17T18:29:56.108Z,99.90
2019-03-17T18:32:34.641Z,99.90
2019-03-17T18:35:13.566Z,99.90
2019-03-17T18:37:52.835Z,99.90
2019-03-17T18:40:30.924Z,99.90
2019-03-17T18:43:08.963Z,99.90
2019-03-17T18:45:46.990Z,99.90
2019-03-17T18:48:25.507Z,99.90
2019-03-17T18:51:04.082Z,99.90
2019-03-17T18:53:43.194Z,99.90
2019-03-17T18:56:21.426Z,99.90
2019-03-17T18:59:00.247Z,99.90
2019-03-17T19:01:37.901Z,99.90
2019-03-17T19:04:15.983Z,99.90
2019-03-17T19:06:54.863Z,99.90
2019-03-17T19:09:33.619Z,99.90
2019-03-17T19:12:12.046Z,99.90
2019-03-17T19:14:50.145Z,99.70
2019-03-17T19:17:28.000Z,99.90
2019-03-17T19:20:06.924Z,99.90
2019-03-17T19:22:46.004Z,99.90
2019-03-17T19:25:24.425Z,99.70
2019-03-17T19:28:05.384Z,99.80
2019-03-17T19:30:44.048Z,99.90
2019-03-17T19:33:22.405Z,99.90
2019-03-17T19:36:01.252Z,99.90
2019-03-17T19:38:39.664Z,99.60
2019-03-17T19:41:18.848Z,99.80
2019-03-17T19:43:56.951Z,99.90
2019-03-17T19:46:35.264Z,99.90
2019-03-17T19:49:16.034Z,99.90
2019-03-17T19:51:54.583Z,99.90
2019-03-17T19:54:32.468Z,99.90
2019-03-17T19:57:10.601Z,99.90
2019-03-17T19:59:48.939Z,99.90
2019-03-17T20:02:27.715Z,99.90
2019-03-17T20:05:05.863Z,99.90
2019-03-17T20:07:45.755Z,99.90
2019-03-17T20:10:25.865Z,99.90
2019-03-17T20:13:11.615Z,99.90
2019-03-17T20:15:44.609Z,99.90
2019-03-17T20:18:25.457Z,99.90
2019-03-17T20:21:03.384Z,99.90
2019-03-17T20:23:42.938Z,99.90
2019-03-17T20:26:24.571Z,99.90
2019-03-17T20:29:01.946Z,99.90
2019-03-17T20:31:40.307Z,99.90
2019-03-17T20:34:18.754Z,99.90
2019-03-17T20:36:56.859Z,99.90
2019-03-17T20:39:36.086Z,99.90
2019-03-17T20:42:16.496Z,99.90
2019-03-17T20:44:55.830Z,99.90
2019-03-17T20:47:33.748Z,99.90
2019-03-17T20:50:12.230Z,99.90
2019-03-17T20:52:50.607Z,99.90
2019-03-17T20:55:29.788Z,99.90
2019-03-17T20:58:08.054Z,99.90
2019-03-17T21:00:46.269Z,99.90
2019-03-17T21:03:24.878Z,99.90
2019-03-17T21:06:03.855Z,99.90
2019-03-17T21:08:42.149Z,99.90
2019-03-17T21:11:21.259Z,99.90
2019-03-17T21:14:00.126Z,99.90
2019-03-17T21:16:38.568Z,99.90
2019-03-17T21:19:16.670Z,99.90
2019-03-17T21:21:54.957Z,99.90
2019-03-17T21:24:32.940Z,99.90
2019-03-17T21:27:14.872Z,99.90
2019-03-17T21:29:52.609Z,99.90
2019-03-17T21:32:31.461Z,99.90
2019-03-17T21:35:11.087Z,99.90
2019-03-17T21:37:49.994Z,99.90
2019-03-17T21:40:28.037Z,99.90
2019-03-17T21:43:06.615Z,99.90
2019-03-17T21:45:45.232Z,99.90
2019-03-17T21:48:23.608Z,99.90
2019-03-17T21:51:01.469Z,99.90
2019-03-17T21:53:40.626Z,99.90
2019-03-17T21:56:18.169Z,99.90
2019-03-17T21:59:00.832Z,99.90
2019-03-17T22:01:38.980Z,99.90
2019-03-17T22:04:17.792Z,99.90
2019-03-17T22:06:56.006Z,99.90
2019-03-17T22:09:34.232Z,99.90
2019-03-17T22:12:12.694Z,99.90
2019-03-17T22:14:54.520Z,99.90
2019-03-17T22:17:33.510Z,99.60
2019-03-17T22:20:12.474Z,99.70
2019-03-17T22:22:51.122Z,99.90
2019-03-17T22:25:28.624Z,99.90
2019-03-17T22:28:08.809Z,99.90
2019-03-17T22:30:47.469Z,99.90
2019-03-17T22:33:30.284Z,99.90
2019-03-17T22:36:08.390Z,99.90
2019-03-17T22:38:46.123Z,99.90
2019-03-17T22:41:25.199Z,99.90
2019-03-17T22:44:03.181Z,99.90
2019-03-17T22:46:47.557Z,99.90
2019-03-17T22:49:26.440Z,99.90
2019-03-17T22:52:05.024Z,99.90
2019-03-17T22:54:43.344Z,99.90
2019-03-17T22:57:22.892Z,99.90
2019-03-17T23:00:00.392Z,99.90
2019-03-17T23:02:40.114Z,99.90
2019-03-17T23:05:18.264Z,99.90
2019-03-17T23:07:55.774Z,99.90
2019-03-17T23:10:33.989Z,99.90
2019-03-17T23:13:13.064Z,99.90
2019-03-17T23:15:51.312Z,99.90
2019-03-17T23:18:30.822Z,99.90
2019-03-17T23:21:09.980Z,99.90
2019-03-17T23:23:49.582Z,99.90
2019-03-17T23:26:28.905Z,99.90
2019-03-17T23:29:07.316Z,99.90
2019-03-17T23:31:46.143Z,99.90
2019-03-17T23:34:27.250Z,99.90
2019-03-17T23:37:05.137Z,99.90
2019-03-17T23:39:45.011Z,99.90
2019-03-17T23:42:23.533Z,99.90
2019-03-17T23:45:02.639Z,99.90
2019-03-17T23:47:42.693Z,99.90
2019-03-17T23:50:21.402Z,99.90
2019-03-17T23:53:00.479Z,99.90
2019-03-17T23:55:39.483Z,99.90
2019-03-17T23:58:17.448Z,99.90
